createdAt,value
2023-12-23T00:01:01.433Z,96954.79
2023-12-23T00:03:28.266Z,96952.70
2023-12-23T00:05:55.198Z,96961.80
2023-12-23T00:08:22.222Z,96961.95
2023-12-23T00:10:49.221Z,96961.70
2023-12-23T00:13:16.034Z,96967.05
2023-12-23T00:15:42.897Z,96965.80
2023-12-23T00:18:10.048Z,96978.79
2023-12-23T00:20:37.952Z,96984.77
2023-12-23T00:23:05.442Z,96975.44
2023-12-23T00:25:32.528Z,96980.32
2023-12-23T00:27:59.374Z,96976.33
2023-12-23T00:30:26.243Z,96986.79
2023-12-23T00:32:53.308Z,96986.66
2023-12-23T00:35:20.222Z,96997.16
2023-12-23T00:37:47.665Z,96997.50
2023-12-23T00:40:14.942Z,96996.89
2023-12-23T00:42:41.798Z,97001.00
2023-12-23T00:45:08.958Z,97009.50
2023-12-23T00:47:38.351Z,97003.34
2023-12-23T00:50:06.338Z,97013.78
2023-12-23T00:52:33.463Z,97026.67
2023-12-23T00:55:01.274Z,97020.80
2023-12-23T00:57:29.331Z,97023.42
2023-12-23T00:59:59.238Z,97024.80
2023-12-23T01:02:26.014Z,97030.39
2023-12-23T01:04:55.551Z,97029.11
2023-12-23T01:07:22.673Z,97034.31
2023-12-23T01:09:49.730Z,97035.49
2023-12-23T01:12:16.716Z,97039.95
2023-12-23T01:14:45.619Z,97040.17
2023-12-23T01:17:12.784Z,97047.27
2023-12-23T01:19:39.698Z,97056.02
2023-12-23T01:22:06.485Z,97058.11
2023-12-23T01:24:33.305Z,97052.16
2023-12-23T01:27:00.155Z,97059.73
2023-12-23T01:29:26.970Z,97058.66
2023-12-23T01:31:53.816Z,97060.27
2023-12-23T01:34:21.068Z,97071.70
2023-12-23T01:36:47.923Z,97075.02
2023-12-23T01:39:14.761Z,97077.61
2023-12-23T01:41:41.708Z,97081.15
2023-12-23T01:44:09.100Z,97078.49
2023-12-23T01:46:36.546Z,97086.55
2023-12-23T01:49:05.063Z,97085.30
2023-12-23T01:51:32.893Z,97090.15
2023-12-23T01:54:03.827Z,97091.27
2023-12-23T01:56:30.984Z,97100.66
2023-12-23T01:58:58.234Z,97098.73
2023-12-23T02:01:25.155Z,97104.86
2023-12-23T02:03:52.094Z,97099.95
2023-12-23T02:06:19.079Z,97102.76
2023-12-23T02:08:46.969Z,97100.80
2023-12-23T02:11:17.330Z,97097.77
2023-12-23T02:14:00.154Z,97098.94
2023-12-23T02:16:27.269Z,97106.91
2023-12-23T02:18:54.168Z,97107.69
2023-12-23T02:21:21.331Z,97114.52
2023-12-23T02:23:50.136Z,97108.27
2023-12-23T02:26:20.862Z,97112.13
2023-12-23T02:28:53.107Z,97115.27
2023-12-23T02:31:21.452Z,97111.98
2023-12-23T02:33:49.268Z,97115.89
2023-12-23T02:36:23.860Z,97122.97
2023-12-23T02:38:50.803Z,97122.78
2023-12-23T02:41:18.058Z,97118.83
2023-12-23T02:43:45.056Z,97130.95
2023-12-23T02:46:12.080Z,97138.38
2023-12-23T02:48:39.074Z,97133.81
2023-12-23T02:51:06.060Z,97140.54
2023-12-23T02:53:32.941Z,97141.15
2023-12-23T02:56:01.105Z,97144.84
2023-12-23T02:58:28.038Z,97146.77
2023-12-23T03:00:54.914Z,97164.09
2023-12-23T03:03:21.755Z,97159.33
2023-12-23T03:05:48.709Z,97157.85
2023-12-23T03:08:15.755Z,97161.30
2023-12-23T03:10:42.887Z,97167.93
2023-12-23T03:13:09.861Z,97168.02
2023-12-23T03:15:36.705Z,97169.88
2023-12-23T03:18:03.811Z,97176.86
2023-12-23T03:20:31.331Z,97173.81
2023-12-23T03:22:58.169Z,97193.25
2023-12-23T03:25:25.246Z,97186.77
2023-12-23T03:27:52.376Z,97190.50
2023-12-23T03:30:19.330Z,97198.04
2023-12-23T03:32:47.334Z,97202.65
2023-12-23T03:35:14.378Z,97205.31
2023-12-23T03:37:41.204Z,97209.63
2023-12-23T03:40:09.935Z,97207.88
2023-12-23T03:42:40.384Z,97202.83
2023-12-23T03:45:07.786Z,97206.83
2023-12-23T03:47:37.594Z,97219.15
2023-12-23T03:50:04.725Z,97225.77
2023-12-23T03:52:31.592Z,97220.45
2023-12-23T03:54:58.375Z,97229.32
2023-12-23T03:57:25.232Z,97227.52
2023-12-23T03:59:52.043Z,97226.70
2023-12-23T04:02:18.997Z,97235.85
2023-12-23T04:04:45.927Z,97249.27
2023-12-23T04:07:13.478Z,97258.16
2023-12-23T04:09:41.505Z,97256.77
2023-12-23T04:12:10.633Z,97257.96
2023-12-23T04:14:38.679Z,97262.77
2023-12-23T04:17:06.054Z,97266.91
2023-12-23T04:19:33.410Z,97276.12
2023-12-23T04:22:00.332Z,97279.65
2023-12-23T04:24:30.713Z,97286.30
2023-12-23T04:26:57.556Z,97291.13
2023-12-23T04:29:25.760Z,97293.27
2023-12-23T04:31:52.808Z,97300.88
2023-12-23T04:34:19.913Z,97296.78
2023-12-23T04:36:47.361Z,97298.92
2023-12-23T04:39:14.148Z,97321.04
2023-12-23T04:41:48.372Z,97325.08
2023-12-23T04:44:16.273Z,97319.16
2023-12-23T04:46:44.086Z,97319.34
2023-12-23T04:49:11.016Z,97313.16
2023-12-23T04:51:37.963Z,97315.24
2023-12-23T04:54:04.914Z,97321.28
2023-12-23T04:56:31.763Z,97316.22
2023-12-23T04:58:58.748Z,97318.64
2023-12-23T05:01:27.106Z,97317.60
2023-12-23T05:03:54.972Z,97333.17
2023-12-23T05:06:22.015Z,97324.02
2023-12-23T05:08:49.079Z,97335.92
2023-12-23T05:11:16.194Z,97341.55
2023-12-23T05:13:43.238Z,97342.27
2023-12-23T05:16:10.347Z,97344.40
2023-12-23T05:18:38.522Z,97346.09
2023-12-23T05:21:06.232Z,97347.72
2023-12-23T05:23:34.066Z,97353.88
2023-12-23T05:26:00.932Z,97371.49
2023-12-23T05:28:27.752Z,97363.58
2023-12-23T05:30:54.708Z,97368.11
2023-12-23T05:33:26.064Z,97377.00
2023-12-23T05:35:53.434Z,97380.42
2023-12-23T05:38:20.594Z,97395.59
2023-12-23T05:40:47.552Z,97396.66
2023-12-23T05:43:14.776Z,97395.34
2023-12-23T05:45:41.743Z,97400.88
2023-12-23T05:48:08.784Z,97414.69
2023-12-23T05:50:35.953Z,97417.83
2023-12-23T05:53:02.749Z,97423.59
2023-12-23T05:55:29.690Z,97418.77
2023-12-23T05:57:56.587Z,97425.70
2023-12-23T06:00:23.442Z,97424.37
2023-12-23T06:02:50.684Z,97434.08
2023-12-23T06:05:17.911Z,97431.52
2023-12-23T06:07:44.910Z,97436.98
2023-12-23T06:10:11.948Z,97440.55
2023-12-23T06:12:38.794Z,97451.48
2023-12-23T06:15:06.061Z,97458.60
2023-12-23T06:17:33.035Z,97462.55
2023-12-23T06:20:00.274Z,97462.16
2023-12-23T06:22:27.217Z,97470.27
2023-12-23T06:24:54.070Z,97473.85
2023-12-23T06:27:20.918Z,97483.63
2023-12-23T06:29:47.764Z,97483.91
2023-12-23T06:32:14.735Z,97486.91
2023-12-23T06:34:41.694Z,97493.47
2023-12-23T06:37:08.716Z,97501.61
2023-12-23T06:39:35.977Z,97494.80
2023-12-23T06:42:02.827Z,97505.86
2023-12-23T06:44:29.705Z,97519.70
2023-12-23T06:46:56.660Z,97513.50
2023-12-23T06:49:25.724Z,97523.09
2023-12-23T06:51:52.776Z,97521.41
2023-12-23T06:54:19.632Z,97531.11
2023-12-23T06:56:46.581Z,97535.98
2023-12-23T06:59:14.508Z,97529.63
2023-12-23T07:01:41.639Z,97550.55
2023-12-23T07:04:09.568Z,97551.64
2023-12-23T07:06:37.054Z,97547.14
2023-12-23T07:09:06.322Z,97560.28
2023-12-23T07:11:35.041Z,97566.33
2023-12-23T07:14:02.178Z,97566.89
2023-12-23T07:16:29.060Z,97567.86
2023-12-23T07:18:56.079Z,97578.96
2023-12-23T07:21:22.958Z,97578.73
2023-12-23T07:23:50.099Z,97587.79
2023-12-23T07:26:16.965Z,97591.79
2023-12-23T07:28:43.962Z,97593.41
2023-12-23T07:31:10.849Z,97596.10
2023-12-23T07:33:37.864Z,97605.90
2023-12-23T07:36:04.856Z,97599.54
2023-12-23T07:38:31.797Z,97608.40
2023-12-23T07:40:58.883Z,97610.33
2023-12-23T07:43:25.824Z,97613.79
2023-12-23T07:45:52.726Z,97614.67
2023-12-23T07:48:19.676Z,97619.05
2023-12-23T07:50:46.665Z,97619.77
2023-12-23T07:53:13.765Z,97622.83
2023-12-23T07:55:41.845Z,97638.31
2023-12-23T07:58:08.802Z,97624.03
2023-12-23T08:00:35.702Z,97629.21
2023-12-23T08:03:02.649Z,97635.53
2023-12-23T08:05:33.187Z,97637.34
2023-12-23T08:08:00.345Z,97638.85
2023-12-23T08:10:27.409Z,97650.37
2023-12-23T08:12:54.515Z,97656.04
2023-12-23T08:15:21.698Z,97654.08
2023-12-23T08:17:48.703Z,97655.00
2023-12-23T08:20:15.888Z,97653.74
2023-12-23T08:22:42.950Z,97663.06
2023-12-23T08:25:10.426Z,97669.45
2023-12-23T08:27:38.648Z,97667.08
2023-12-23T08:30:06.737Z,97665.73
2023-12-23T08:32:34.536Z,97681.52
2023-12-23T08:35:02.000Z,97687.50
2023-12-23T08:37:29.067Z,97688.52
2023-12-23T08:39:55.925Z,97691.48
2023-12-23T08:42:22.872Z,97690.68
2023-12-23T08:44:50.427Z,97695.65
2023-12-23T08:47:17.504Z,97703.32
2023-12-23T08:49:44.487Z,97708.16
2023-12-23T08:52:11.651Z,97714.98
2023-12-23T08:54:41.722Z,97712.73
2023-12-23T08:57:09.680Z,97722.70
2023-12-23T08:59:36.635Z,97713.73
2023-12-23T09:02:05.332Z,97723.85
2023-12-23T09:04:32.498Z,97727.23
2023-12-23T09:06:59.482Z,97731.73
2023-12-23T09:09:26.583Z,97736.27
2023-12-23T09:11:53.633Z,97749.85
2023-12-23T09:14:20.745Z,97751.12
2023-12-23T09:16:47.792Z,97746.27
2023-12-23T09:19:14.811Z,97755.51
2023-12-23T09:21:41.749Z,97761.46
2023-12-23T09:24:08.627Z,97757.47
2023-12-23T09:26:36.834Z,97759.30
2023-12-23T09:29:04.005Z,97770.52
2023-12-23T09:31:31.671Z,97769.86
2023-12-23T09:33:58.756Z,97765.45
2023-12-23T09:36:25.720Z,97764.60
2023-12-23T09:38:52.561Z,97769.06
2023-12-23T09:41:20.038Z,97772.59
2023-12-23T09:43:49.050Z,97770.38
2023-12-23T09:46:17.665Z,97778.81
2023-12-23T09:48:45.068Z,97781.40
2023-12-23T09:51:12.460Z,97785.02
2023-12-23T09:53:39.511Z,97787.41
2023-12-23T09:56:07.809Z,97791.88
2023-12-23T09:58:35.541Z,97785.48
2023-12-23T10:01:02.542Z,97790.88
2023-12-23T10:03:30.460Z,97800.72
2023-12-23T10:06:02.385Z,97794.61
2023-12-23T10:08:29.620Z,97796.96
2023-12-23T10:10:56.663Z,97804.34
2023-12-23T10:13:23.600Z,97806.87
2023-12-23T10:15:50.961Z,97812.36
2023-12-23T10:18:18.007Z,97800.70
2023-12-23T10:20:45.048Z,97799.34
2023-12-23T10:23:12.175Z,97803.05
2023-12-23T10:25:40.176Z,97813.52
2023-12-23T10:28:08.113Z,97811.17
2023-12-23T10:30:35.787Z,97814.50
2023-12-23T10:33:09.833Z,97826.35
2023-12-23T10:35:45.918Z,97835.21
2023-12-23T10:38:18.100Z,97829.86
2023-12-23T10:41:04.431Z,97839.23
2023-12-23T10:43:31.651Z,97836.86
2023-12-23T10:45:59.077Z,97834.55
2023-12-23T10:48:26.939Z,97841.08
2023-12-23T10:50:54.929Z,97842.59
2023-12-23T10:53:22.826Z,97844.48
2023-12-23T10:55:49.763Z,97845.16
2023-12-23T10:58:18.082Z,97851.39
2023-12-23T11:00:45.561Z,97847.52
2023-12-23T11:03:13.042Z,97854.86
2023-12-23T11:05:41.950Z,97863.44
2023-12-23T11:08:17.001Z,97866.18
2023-12-23T11:10:46.468Z,97864.36
2023-12-23T11:13:14.810Z,97872.53
2023-12-23T11:15:41.929Z,97870.17
2023-12-23T11:18:10.718Z,97883.02
2023-12-23T11:20:37.806Z,97890.00
2023-12-23T11:23:23.462Z,97879.39
2023-12-23T11:25:50.601Z,97897.96
2023-12-23T11:28:19.017Z,97906.44
2023-12-23T11:30:56.730Z,97906.80
2023-12-23T11:33:24.652Z,97914.04
2023-12-23T11:35:57.719Z,97914.65
2023-12-23T11:38:30.246Z,97920.04
2023-12-23T11:40:57.343Z,97928.56
2023-12-23T11:43:24.582Z,97923.80
2023-12-23T11:45:51.897Z,97935.13
2023-12-23T11:48:22.558Z,97940.58
2023-12-23T11:50:49.651Z,97942.42
2023-12-23T11:53:16.854Z,97947.52
2023-12-23T11:55:44.238Z,97944.11
2023-12-23T11:58:12.196Z,97948.23
2023-12-23T12:00:42.087Z,97954.75
2023-12-23T12:03:12.266Z,97968.67
2023-12-23T12:05:39.165Z,97966.62
2023-12-23T12:08:07.889Z,97963.26
2023-12-23T12:10:35.321Z,97971.11
2023-12-23T12:13:02.274Z,97975.48
2023-12-23T12:15:29.223Z,97976.23
2023-12-23T12:17:56.956Z,97976.09
2023-12-23T12:20:24.590Z,97994.92
2023-12-23T12:22:51.892Z,97991.15
2023-12-23T12:25:19.088Z,97996.37
2023-12-23T12:27:46.021Z,97990.23
2023-12-23T12:30:13.533Z,97994.91
2023-12-23T12:32:45.720Z,98002.72
2023-12-23T12:35:13.597Z,98006.61
2023-12-23T12:37:41.298Z,98005.79
2023-12-23T12:40:12.491Z,98014.27
2023-12-23T12:42:39.766Z,98018.64
2023-12-23T12:45:07.069Z,98025.49
2023-12-23T12:47:38.244Z,98024.35
2023-12-23T12:50:07.546Z,98033.86
2023-12-23T12:52:35.351Z,98032.10
2023-12-23T12:55:05.723Z,98044.45
2023-12-23T12:57:33.078Z,98040.22
2023-12-23T12:59:59.852Z,98050.38
2023-12-23T13:02:26.901Z,98051.27
2023-12-23T13:04:53.972Z,98055.10
2023-12-23T13:07:22.377Z,98063.11
2023-12-23T13:09:49.356Z,98074.95
2023-12-23T13:12:17.436Z,98072.36
2023-12-23T13:14:44.396Z,98075.88
2023-12-23T13:17:11.376Z,98085.37
2023-12-23T13:19:38.718Z,98089.67
2023-12-23T13:22:06.871Z,98096.11
2023-12-23T13:24:34.535Z,98102.42
2023-12-23T13:27:01.493Z,98123.21
2023-12-23T13:29:29.372Z,98119.91
2023-12-23T13:31:56.600Z,98128.23
2023-12-23T13:34:23.650Z,98133.27
2023-12-23T13:36:50.524Z,98131.52
2023-12-23T13:39:17.472Z,98139.95
2023-12-23T13:41:44.357Z,98147.82
2023-12-23T13:44:11.311Z,98151.34
2023-12-23T13:46:39.575Z,98156.02
2023-12-23T13:49:06.594Z,98158.91
2023-12-23T13:51:33.557Z,98165.88
2023-12-23T13:54:00.429Z,98172.04
2023-12-23T13:56:27.380Z,98175.08
2023-12-23T13:58:54.373Z,98177.30
2023-12-23T14:01:21.257Z,98189.20
2023-12-23T14:03:48.256Z,98185.03
2023-12-23T14:06:15.078Z,98189.31
2023-12-23T14:08:41.906Z,98192.56
2023-12-23T14:11:08.782Z,98215.36
2023-12-23T14:13:35.774Z,98201.30
2023-12-23T14:16:02.704Z,98205.04
2023-12-23T14:18:29.697Z,98216.96
2023-12-23T14:20:56.601Z,98220.59
2023-12-23T14:23:23.433Z,98225.08
2023-12-23T14:25:50.383Z,98228.77
2023-12-23T14:28:18.739Z,98238.90
2023-12-23T14:30:49.126Z,98239.43
2023-12-23T14:33:16.102Z,98247.45
2023-12-23T14:35:43.182Z,98249.77
2023-12-23T14:38:10.175Z,98258.02
2023-12-23T14:40:36.967Z,98250.85
2023-12-23T14:43:03.797Z,98263.01
2023-12-23T14:45:30.700Z,98267.70
2023-12-23T14:47:57.561Z,98270.77
2023-12-23T14:50:24.393Z,98274.86
2023-12-23T14:52:51.664Z,98270.84
2023-12-23T14:55:18.680Z,98284.73
2023-12-23T14:57:45.491Z,98281.69
2023-12-23T15:00:12.727Z,98289.29
2023-12-23T15:02:39.577Z,98301.39
2023-12-23T15:05:07.375Z,98297.73
2023-12-23T15:07:34.270Z,98300.64
2023-12-23T15:10:01.235Z,98319.02
2023-12-23T15:12:28.805Z,98319.48
2023-12-23T15:14:55.732Z,98321.84
2023-12-23T15:17:22.824Z,98325.52
2023-12-23T15:19:50.266Z,98333.56
2023-12-23T15:22:17.279Z,98331.85
2023-12-23T15:24:44.357Z,98337.19
2023-12-23T15:27:11.284Z,98341.94
2023-12-23T15:29:38.353Z,98345.44
2023-12-23T15:32:05.397Z,98352.00
2023-12-23T15:34:32.341Z,98355.35
2023-12-23T15:36:59.192Z,98353.26
2023-12-23T15:39:26.146Z,98363.52
2023-12-23T15:41:52.990Z,98365.05
2023-12-23T15:44:19.894Z,98377.30
2023-12-23T15:46:46.988Z,98382.91
2023-12-23T15:49:14.177Z,98389.43
2023-12-23T15:51:41.099Z,98393.30
2023-12-23T15:54:10.561Z,98397.65
2023-12-23T15:56:40.636Z,98398.24
2023-12-23T15:59:07.565Z,98407.02
2023-12-23T16:01:35.058Z,98408.39
2023-12-23T16:04:02.267Z,98416.91
2023-12-23T16:06:30.794Z,98411.68
2023-12-23T16:08:57.836Z,98415.48
2023-12-23T16:11:24.777Z,98423.80
2023-12-23T16:13:51.878Z,98426.84
2023-12-23T16:16:18.786Z,98426.91
2023-12-23T16:18:45.941Z,98434.77
2023-12-23T16:21:14.109Z,98438.23
2023-12-23T16:23:41.210Z,98448.28
2023-12-23T16:26:16.031Z,98454.20
2023-12-23T16:28:43.416Z,98455.72
2023-12-23T16:31:10.328Z,98458.50
2023-12-23T16:33:37.413Z,98456.34
2023-12-23T16:36:04.740Z,98458.29
2023-12-23T16:38:31.748Z,98467.61
2023-12-23T16:40:58.947Z,98477.99
2023-12-23T16:43:25.915Z,98480.01
2023-12-23T16:45:52.863Z,98480.79
2023-12-23T16:48:19.867Z,98478.02
2023-12-23T16:50:47.201Z,98484.15
2023-12-23T16:53:14.308Z,98487.80
2023-12-23T16:55:41.377Z,98488.77
2023-12-23T16:58:08.321Z,98496.13
2023-12-23T17:00:35.282Z,98502.27
2023-12-23T17:03:02.150Z,98507.77
2023-12-23T17:05:29.155Z,98511.11
2023-12-23T17:07:56.148Z,98510.42
2023-12-23T17:10:23.090Z,98521.22
2023-12-23T17:12:50.207Z,98514.71
2023-12-23T17:15:17.290Z,98519.02
2023-12-23T17:17:44.438Z,98520.89
2023-12-23T17:20:12.054Z,98519.64
2023-12-23T17:22:39.279Z,98521.98
2023-12-23T17:25:06.437Z,98525.86
2023-12-23T17:27:33.368Z,98528.45
2023-12-23T17:30:01.402Z,98532.42
2023-12-23T17:32:28.684Z,98528.34
2023-12-23T17:34:55.893Z,98537.11
2023-12-23T17:37:22.905Z,98543.88
2023-12-23T17:39:49.755Z,98547.77
2023-12-23T17:42:16.643Z,98549.31
2023-12-23T17:44:43.563Z,98550.45
2023-12-23T17:47:10.469Z,98561.46
2023-12-23T17:49:37.458Z,98565.81
2023-12-23T17:52:04.644Z,98564.83
2023-12-23T17:54:31.476Z,98563.44
2023-12-23T17:56:58.415Z,98568.48
2023-12-23T17:59:26.416Z,98566.01
2023-12-23T18:01:54.358Z,98568.56
2023-12-23T18:04:21.414Z,98582.77
2023-12-23T18:06:48.218Z,98578.16
2023-12-23T18:09:15.211Z,98576.77
2023-12-23T18:11:42.060Z,98586.75
2023-12-23T18:14:09.026Z,98590.95
2023-12-23T18:16:35.981Z,98592.08
2023-12-23T18:19:02.805Z,98594.52
2023-12-23T18:21:29.778Z,98601.85
2023-12-23T18:23:56.612Z,98605.13
2023-12-23T18:26:23.583Z,98600.04
2023-12-23T18:28:50.433Z,98605.71
2023-12-23T18:31:17.257Z,98607.23
2023-12-23T18:33:44.300Z,98611.42
2023-12-23T18:36:11.262Z,98610.21
2023-12-23T18:38:38.101Z,98617.44
2023-12-23T18:41:06.170Z,98618.98
2023-12-23T18:43:33.233Z,98621.20
2023-12-23T18:46:00.091Z,98623.08
2023-12-23T18:48:27.150Z,98622.58
2023-12-23T18:50:54.080Z,98630.89
2023-12-23T18:53:20.969Z,98642.10
2023-12-23T18:55:47.885Z,98648.14
2023-12-23T18:58:16.578Z,98639.89
2023-12-23T19:00:43.608Z,98656.30
2023-12-23T19:03:13.370Z,98658.05
2023-12-23T19:05:40.313Z,98659.92
2023-12-23T19:08:08.579Z,98661.50
2023-12-23T19:10:35.758Z,98672.49
2023-12-23T19:13:03.104Z,98665.48
2023-12-23T19:15:29.954Z,98668.73
2023-12-23T19:17:57.031Z,98670.99
2023-12-23T19:20:24.249Z,98672.70
2023-12-23T19:22:51.459Z,98682.73
2023-12-23T19:25:19.788Z,98685.29
2023-12-23T19:27:47.262Z,98689.29
2023-12-23T19:30:14.334Z,98696.60
2023-12-23T19:32:41.997Z,98692.60
2023-12-23T19:35:09.318Z,98693.34
2023-12-23T19:37:37.418Z,98695.52
2023-12-23T19:40:09.863Z,98696.84
2023-12-23T19:42:38.064Z,98704.19
2023-12-23T19:45:05.855Z,98713.08
2023-12-23T19:47:36.021Z,98715.08
2023-12-23T19:50:03.162Z,98728.95
2023-12-23T19:52:30.073Z,98729.48
2023-12-23T19:54:56.913Z,98726.77
2023-12-23T19:57:23.766Z,98733.55
2023-12-23T19:59:52.585Z,98738.36
2023-12-23T20:02:19.543Z,98744.02
2023-12-23T20:04:46.572Z,98748.52
2023-12-23T20:07:13.344Z,98750.73
2023-12-23T20:09:40.254Z,98750.73
2023-12-23T20:12:08.358Z,98753.88
2023-12-23T20:14:36.246Z,98754.05
2023-12-23T20:17:03.508Z,98761.56
2023-12-23T20:19:30.546Z,98757.29
2023-12-23T20:21:57.474Z,98764.89
2023-12-23T20:24:24.521Z,98767.10
2023-12-23T20:26:52.519Z,98766.30
2023-12-23T20:29:19.538Z,98777.61
2023-12-23T20:31:46.497Z,98780.89
2023-12-23T20:34:13.828Z,98779.02
2023-12-23T20:36:44.986Z,98781.64
2023-12-23T20:39:12.014Z,98790.80
2023-12-23T20:41:52.731Z,98787.88
2023-12-23T20:44:19.590Z,98796.98
2023-12-23T20:46:46.525Z,98799.23
2023-12-23T20:49:13.434Z,98806.97
2023-12-23T20:51:44.008Z,98805.86
2023-12-23T20:54:10.868Z,98805.68
2023-12-23T20:56:37.791Z,98818.16
2023-12-23T20:59:05.683Z,98821.08
2023-12-23T21:01:32.646Z,98822.61
2023-12-23T21:03:59.586Z,98835.85
2023-12-23T21:06:27.174Z,98834.41
2023-12-23T21:08:54.106Z,98840.15
2023-12-23T21:11:21.252Z,98843.04
2023-12-23T21:13:48.303Z,98847.34
2023-12-23T21:16:15.255Z,98847.27
2023-12-23T21:18:45.671Z,98855.25
2023-12-23T21:21:13.315Z,98860.25
2023-12-23T21:23:40.669Z,98862.61
2023-12-23T21:26:16.196Z,98868.56
2023-12-23T21:28:43.120Z,98862.42
2023-12-23T21:31:10.271Z,98869.55
2023-12-23T21:33:37.183Z,98875.38
2023-12-23T21:36:05.550Z,98873.91
2023-12-23T21:38:32.645Z,98876.99
2023-12-23T21:41:00.108Z,98884.44
2023-12-23T21:43:27.188Z,98881.48
2023-12-23T21:45:55.080Z,98891.33
2023-12-23T21:48:22.606Z,98890.38
2023-12-23T21:50:55.496Z,98891.21
2023-12-23T21:53:25.867Z,98897.25
2023-12-23T21:55:55.334Z,98897.25
2023-12-23T21:58:22.287Z,98905.17
2023-12-23T22:00:49.561Z,98909.11
2023-12-23T22:03:16.827Z,98907.52
2023-12-23T22:05:43.975Z,98911.33
2023-12-23T22:08:11.123Z,98920.62
2023-12-23T22:10:38.153Z,98920.05
2023-12-23T22:13:05.195Z,98921.98
2023-12-23T22:15:32.056Z,98928.17
2023-12-23T22:17:58.941Z,98928.25
2023-12-23T22:20:25.877Z,98942.86
2023-12-23T22:22:53.333Z,98943.43
2023-12-23T22:25:21.827Z,98953.33
2023-12-23T22:27:48.846Z,98952.14
2023-12-23T22:30:15.836Z,98958.67
2023-12-23T22:32:43.263Z,98962.48
2023-12-23T22:35:10.526Z,98972.88
2023-12-23T22:37:38.206Z,98979.34
2023-12-23T22:40:05.475Z,98984.89
2023-12-23T22:42:32.316Z,98991.41
2023-12-23T22:44:59.137Z,98996.64
2023-12-23T22:47:28.086Z,98998.11
2023-12-23T22:49:55.313Z,99004.90
2023-12-23T22:52:22.263Z,99009.92
2023-12-23T22:54:49.156Z,99011.13
2023-12-23T22:57:16.148Z,99016.17
2023-12-23T22:59:42.993Z,99017.64
2023-12-23T23:02:09.819Z,99026.52
2023-12-23T23:04:36.914Z,99023.92
2023-12-23T23:07:03.948Z,99032.70
2023-12-23T23:09:31.210Z,99038.41
2023-12-23T23:11:58.683Z,99046.90
2023-12-23T23:14:25.763Z,99051.84
2023-12-23T23:16:52.851Z,99053.20
2023-12-23T23:19:19.957Z,99052.05
2023-12-23T23:21:46.898Z,99063.73
2023-12-23T23:24:13.731Z,99067.39
2023-12-23T23:26:40.683Z,99067.09
2023-12-23T23:29:07.771Z,99069.98
2023-12-23T23:31:34.586Z,99068.02
2023-12-23T23:34:01.605Z,99070.31
2023-12-23T23:36:28.600Z,99077.90
2023-12-23T23:38:55.538Z,99080.92
2023-12-23T23:41:22.517Z,99084.84
2023-12-23T23:43:49.545Z,99083.93
2023-12-23T23:46:16.654Z,99082.06
2023-12-23T23:48:46.144Z,99087.30
2023-12-23T23:51:19.452Z,99090.11
2023-12-23T23:53:46.562Z,99104.83
2023-12-23T23:56:18.229Z,99108.50
2023-12-23T23:58:46.895Z,99113.67
